createdAt,value
2018-04-26T00:02:10.861Z,9.30
2018-04-26T00:04:38.435Z,9.30
2018-04-26T00:07:06.030Z,9.20
2018-04-26T00:09:33.591Z,9.10
2018-04-26T00:12:01.172Z,9.10
2018-04-26T00:14:29.212Z,9.00
2018-04-26T00:16:56.887Z,9.00
2018-04-26T00:19:24.416Z,8.90
2018-04-26T00:21:52.148Z,8.80
2018-04-26T00:24:19.731Z,8.70
2018-04-26T00:26:47.295Z,8.70
2018-04-26T00:29:31.938Z,8.60
2018-04-26T00:31:59.524Z,8.60
2018-04-26T00:34:27.137Z,8.60
2018-04-26T00:36:54.705Z,8.50
2018-04-26T00:39:22.250Z,8.50
2018-04-26T00:41:50.267Z,8.40
2018-04-26T00:44:17.907Z,8.50
2018-04-26T00:46:45.496Z,8.40
2018-04-26T00:49:13.079Z,8.40
2018-04-26T00:51:53.095Z,8.30
2018-04-26T00:54:20.714Z,8.30
2018-04-26T00:56:48.300Z,8.30
2018-04-26T00:59:15.869Z,8.30
2018-04-26T01:01:43.438Z,8.30
2018-04-26T01:04:10.995Z,8.30
2018-04-26T01:06:38.527Z,8.30
2018-04-26T01:09:06.073Z,8.30
2018-04-26T01:11:33.688Z,8.30
2018-04-26T01:14:01.242Z,8.40
2018-04-26T01:16:28.827Z,8.40
2018-04-26T01:18:56.402Z,8.40
2018-04-26T01:21:24.466Z,8.50
2018-04-26T01:23:52.019Z,8.50
2018-04-26T01:26:19.586Z,8.50
2018-04-26T01:28:47.505Z,8.60
2018-04-26T01:31:15.101Z,8.60
2018-04-26T01:33:43.083Z,8.80
2018-04-26T01:36:27.822Z,8.80
2018-04-26T01:38:55.776Z,8.80
2018-04-26T01:41:23.355Z,8.80
2018-04-26T01:43:51.497Z,8.90
2018-04-26T01:46:19.099Z,8.90
2018-04-26T01:48:47.120Z,9.00
2018-04-26T01:51:14.718Z,9.00
2018-04-26T01:53:43.598Z,9.00
2018-04-26T01:56:14.292Z,9.00
2018-04-26T01:58:41.860Z,9.00
2018-04-26T02:01:09.455Z,9.00
2018-04-26T02:03:37.486Z,9.00
2018-04-26T02:06:05.089Z,9.00
2018-04-26T02:08:33.084Z,9.00
2018-04-26T02:11:00.571Z,9.00
2018-04-26T02:13:28.046Z,9.00
2018-04-26T02:15:55.577Z,8.90
2018-04-26T02:18:23.664Z,8.80
2018-04-26T02:20:51.258Z,8.80
2018-04-26T02:23:18.757Z,8.70
2018-04-26T02:25:46.236Z,8.60
2018-04-26T02:28:13.719Z,8.60
2018-04-26T02:30:41.230Z,8.60
2018-04-26T02:33:08.747Z,8.60
2018-04-26T02:35:36.234Z,8.60
2018-04-26T02:38:03.751Z,8.60
2018-04-26T02:40:31.248Z,8.60
2018-04-26T02:42:58.729Z,8.60
2018-04-26T02:45:26.236Z,8.60
2018-04-26T02:47:54.153Z,8.60
2018-04-26T02:50:21.646Z,8.60
2018-04-26T02:52:49.164Z,8.60
2018-04-26T02:55:16.675Z,8.50
2018-04-26T02:57:44.179Z,8.40
2018-04-26T03:00:11.666Z,8.30
2018-04-26T03:02:39.172Z,8.20
2018-04-26T03:05:06.676Z,8.10
2018-04-26T03:07:34.176Z,8.10
2018-04-26T03:10:02.082Z,8.00
2018-04-26T03:12:29.592Z,8.00
2018-04-26T03:14:57.471Z,7.90
2018-04-26T03:17:25.349Z,7.80
2018-04-26T03:19:52.862Z,7.80
2018-04-26T03:22:20.366Z,7.80
2018-04-26T03:24:47.899Z,7.70
2018-04-26T03:27:15.793Z,7.70
2018-04-26T03:29:43.314Z,7.70
2018-04-26T03:32:10.850Z,7.60
2018-04-26T03:34:38.342Z,7.60
2018-04-26T03:37:06.272Z,7.60
2018-04-26T03:39:33.782Z,7.60
2018-04-26T03:42:01.288Z,7.60
2018-04-26T03:44:28.770Z,7.60
2018-04-26T03:46:56.261Z,7.60
2018-04-26T03:49:26.821Z,7.60
2018-04-26T03:51:54.345Z,7.60
2018-04-26T03:54:21.848Z,7.50
2018-04-26T03:56:49.350Z,7.50
2018-04-26T03:59:16.849Z,7.50
2018-04-26T04:01:56.172Z,7.60
2018-04-26T04:04:35.645Z,7.60
2018-04-26T04:07:03.140Z,7.60
2018-04-26T04:09:30.642Z,7.60
2018-04-26T04:11:58.159Z,7.60
2018-04-26T04:14:25.715Z,7.60
2018-04-26T04:16:53.601Z,7.60
2018-04-26T04:19:21.096Z,7.60
2018-04-26T04:21:48.595Z,7.60
2018-04-26T04:24:16.076Z,7.50
2018-04-26T04:26:43.572Z,7.50
2018-04-26T04:29:11.054Z,7.50
2018-04-26T04:31:38.951Z,7.40
2018-04-26T04:34:06.439Z,7.40
2018-04-26T04:36:33.936Z,7.30
2018-04-26T04:39:01.833Z,7.20
2018-04-26T04:41:29.306Z,7.20
2018-04-26T04:43:56.811Z,7.20
2018-04-26T04:46:24.715Z,7.10
2018-04-26T04:48:52.230Z,7.10
2018-04-26T04:51:20.125Z,7.10
2018-04-26T04:53:47.609Z,7.10
2018-04-26T04:56:15.124Z,7.10
2018-04-26T04:58:42.627Z,7.10
2018-04-26T05:01:10.142Z,7.10
2018-04-26T05:03:37.640Z,7.10
2018-04-26T05:06:05.129Z,7.10
2018-04-26T05:08:32.620Z,7.10
2018-04-26T05:11:00.133Z,7.00
2018-04-26T05:13:27.609Z,6.90
2018-04-26T05:15:55.503Z,6.70
2018-04-26T05:18:23.007Z,6.80
2018-04-26T05:20:50.486Z,6.70
2018-04-26T05:23:17.977Z,6.60
2018-04-26T05:25:45.488Z,6.60
2018-04-26T05:28:12.967Z,6.60
2018-04-26T05:30:40.868Z,6.60
2018-04-26T05:33:08.363Z,6.60
2018-04-26T05:35:35.852Z,6.70
2018-04-26T05:38:03.790Z,6.70
2018-04-26T05:40:31.396Z,6.70
2018-04-26T05:42:59.697Z,6.80
2018-04-26T05:45:27.192Z,6.80
2018-04-26T05:47:54.707Z,6.80
2018-04-26T05:50:22.206Z,6.80
2018-04-26T05:52:49.771Z,6.80
2018-04-26T05:55:17.210Z,6.90
2018-04-26T05:57:44.715Z,6.80
2018-04-26T06:00:12.225Z,6.90
2018-04-26T06:02:39.739Z,6.90
2018-04-26T06:05:07.613Z,6.90
2018-04-26T06:07:35.104Z,6.90
2018-04-26T06:10:02.617Z,6.90
2018-04-26T06:12:30.144Z,6.90
2018-04-26T06:14:58.031Z,7.00
2018-04-26T06:17:25.537Z,7.00
2018-04-26T06:19:53.028Z,7.10
2018-04-26T06:22:20.902Z,7.20
2018-04-26T06:24:48.799Z,7.30
2018-04-26T06:27:16.304Z,7.30
2018-04-26T06:29:43.797Z,7.40
2018-04-26T06:32:11.333Z,7.50
2018-04-26T06:34:39.225Z,8.00
2018-04-26T06:37:06.713Z,8.00
2018-04-26T06:39:34.199Z,8.30
2018-04-26T06:42:01.676Z,8.40
2018-04-26T06:44:29.636Z,8.40
2018-04-26T06:46:57.525Z,8.30
2018-04-26T06:49:25.041Z,8.30
2018-04-26T06:51:52.517Z,8.50
2018-04-26T06:54:20.416Z,8.70
2018-04-26T06:56:47.916Z,8.70
2018-04-26T06:59:15.419Z,8.70
2018-04-26T07:01:42.913Z,8.70
2018-04-26T07:04:10.400Z,8.70
2018-04-26T07:06:37.913Z,8.70
2018-04-26T07:09:05.418Z,8.70
2018-04-26T07:11:32.935Z,8.80
2018-04-26T07:14:00.445Z,8.80
2018-04-26T07:16:28.346Z,8.90
2018-04-26T07:18:55.848Z,8.90
2018-04-26T07:21:23.354Z,8.90
2018-04-26T07:23:50.829Z,8.90
2018-04-26T07:26:18.329Z,9.00
2018-04-26T07:28:45.818Z,9.00
2018-04-26T07:31:13.328Z,9.00
2018-04-26T07:33:40.826Z,9.10
2018-04-26T07:36:08.331Z,9.30
2018-04-26T07:38:35.839Z,9.40
2018-04-26T07:41:03.744Z,9.40
2018-04-26T07:43:31.248Z,9.40
2018-04-26T07:45:58.746Z,9.50
2018-04-26T07:48:26.231Z,9.40
2018-04-26T07:50:53.742Z,9.50
2018-04-26T07:53:21.232Z,9.60
2018-04-26T07:55:48.737Z,9.60
2018-04-26T07:58:16.643Z,9.50
2018-04-26T08:00:44.113Z,9.50
2018-04-26T08:03:11.636Z,9.70
2018-04-26T08:05:39.145Z,9.80
2018-04-26T08:08:06.661Z,9.90
2018-04-26T08:10:34.250Z,10.00
2018-04-26T08:13:01.761Z,9.90
2018-04-26T08:15:29.295Z,9.80
2018-04-26T08:17:56.824Z,9.70
2018-04-26T08:20:24.323Z,9.60
2018-04-26T08:22:52.225Z,9.70
2018-04-26T08:25:19.739Z,9.70
2018-04-26T08:27:47.261Z,9.70
2018-04-26T08:30:14.765Z,9.80
2018-04-26T08:32:42.660Z,10.10
2018-04-26T08:35:10.168Z,10.10
2018-04-26T08:37:37.701Z,10.20
2018-04-26T08:40:05.227Z,10.30
2018-04-26T08:42:32.717Z,10.40
2018-04-26T08:45:00.256Z,10.40
2018-04-26T08:47:27.749Z,10.60
2018-04-26T08:49:55.269Z,10.60
2018-04-26T08:52:22.870Z,10.60
2018-04-26T08:54:50.295Z,10.50
2018-04-26T08:57:17.803Z,10.40
2018-04-26T08:59:45.719Z,10.10
2018-04-26T09:02:13.232Z,10.10
2018-04-26T09:04:40.718Z,10.20
2018-04-26T09:07:08.210Z,10.20
2018-04-26T09:09:35.710Z,10.20
2018-04-26T09:12:03.587Z,10.50
2018-04-26T09:14:31.493Z,10.80
2018-04-26T09:16:58.999Z,10.80
2018-04-26T09:19:26.920Z,12.30
2018-04-26T09:21:54.471Z,12.30
2018-04-26T09:24:21.969Z,12.50
2018-04-26T09:26:49.494Z,12.80
2018-04-26T09:29:16.969Z,13.00
2018-04-26T09:31:44.471Z,12.90
2018-04-26T09:34:12.074Z,13.10
2018-04-26T09:36:39.568Z,13.20
2018-04-26T09:39:07.459Z,12.60
2018-04-26T09:41:34.989Z,12.60
2018-04-26T09:44:02.882Z,12.90
2018-04-26T09:46:30.382Z,12.90
2018-04-26T09:48:57.873Z,12.90
2018-04-26T09:51:25.391Z,12.50
2018-04-26T09:53:52.904Z,12.10
2018-04-26T09:56:20.412Z,12.10
2018-04-26T09:58:47.925Z,12.00
2018-04-26T10:01:20.200Z,12.40
2018-04-26T10:03:47.727Z,12.80
2018-04-26T10:06:31.049Z,13.70
2018-04-26T10:08:58.543Z,13.70
2018-04-26T10:11:26.060Z,13.90
2018-04-26T10:13:53.968Z,13.20
2018-04-26T10:16:21.493Z,13.20
2018-04-26T10:18:49.384Z,13.00
2018-04-26T10:21:16.882Z,13.00
2018-04-26T10:23:44.400Z,13.50
2018-04-26T10:26:11.929Z,14.10
2018-04-26T10:28:39.418Z,14.40
2018-04-26T10:31:06.961Z,14.40
2018-04-26T10:33:34.868Z,14.90
2018-04-26T10:36:02.388Z,14.90
2018-04-26T10:38:30.786Z,14.30
2018-04-26T10:40:58.293Z,13.50
2018-04-26T10:43:25.838Z,12.70
2018-04-26T10:45:53.338Z,12.50
2018-04-26T10:48:21.229Z,12.20
2018-04-26T10:50:48.760Z,12.20
2018-04-26T10:53:16.254Z,11.90
2018-04-26T10:55:43.752Z,11.70
2018-04-26T10:58:11.680Z,12.90
2018-04-26T11:00:40.783Z,12.90
2018-04-26T11:03:08.416Z,13.30
2018-04-26T11:05:35.914Z,13.80
2018-04-26T11:08:03.420Z,14.20
2018-04-26T11:10:30.901Z,14.10
2018-04-26T11:12:58.984Z,14.70
2018-04-26T11:15:26.562Z,14.70
2018-04-26T11:17:53.989Z,15.00
2018-04-26T11:20:21.508Z,15.00
2018-04-26T11:22:49.389Z,14.60
2018-04-26T11:25:16.903Z,14.50
2018-04-26T11:27:44.418Z,14.40
2018-04-26T11:30:11.906Z,14.40
2018-04-26T11:32:39.406Z,14.10
2018-04-26T11:35:07.353Z,13.20
2018-04-26T11:37:34.862Z,13.20
2018-04-26T11:40:02.367Z,13.10
2018-04-26T11:42:30.353Z,13.20
2018-04-26T11:44:58.225Z,13.40
2018-04-26T11:47:26.121Z,13.90
2018-04-26T11:49:53.636Z,13.90
2018-04-26T11:52:21.198Z,14.40
2018-04-26T11:54:48.639Z,14.70
2018-04-26T11:57:16.133Z,14.60
2018-04-26T11:59:43.618Z,14.70
2018-04-26T12:02:11.190Z,14.40
2018-04-26T12:04:39.038Z,13.40
2018-04-26T12:07:06.526Z,13.40
2018-04-26T12:09:34.024Z,12.60
2018-04-26T12:12:01.536Z,11.90
2018-04-26T12:14:29.032Z,11.20
2018-04-26T12:16:56.540Z,10.70
2018-04-26T12:19:24.030Z,10.30
2018-04-26T12:21:51.540Z,9.80
2018-04-26T12:24:19.014Z,9.40
2018-04-26T12:26:46.509Z,8.80
2018-04-26T12:29:14.409Z,8.00
2018-04-26T12:31:41.980Z,8.00
2018-04-26T12:34:09.482Z,7.80
2018-04-26T12:36:36.984Z,8.20
2018-04-26T12:39:04.480Z,8.90
2018-04-26T12:41:31.988Z,9.80
2018-04-26T12:43:59.469Z,10.80
2018-04-26T12:46:27.016Z,11.20
2018-04-26T12:48:54.528Z,12.10
2018-04-26T12:51:22.014Z,12.80
2018-04-26T12:53:49.533Z,13.50
2018-04-26T12:56:17.041Z,14.30
2018-04-26T12:58:44.542Z,13.50
2018-04-26T13:01:12.048Z,13.40
2018-04-26T13:03:43.764Z,12.90
2018-04-26T13:06:11.328Z,12.60
2018-04-26T13:08:38.874Z,12.80
2018-04-26T13:11:06.398Z,13.00
2018-04-26T13:13:33.896Z,13.00
2018-04-26T13:16:01.443Z,12.80
2018-04-26T13:18:28.959Z,12.70
2018-04-26T13:20:56.457Z,13.00
2018-04-26T13:23:24.053Z,13.30
2018-04-26T13:25:51.478Z,13.40
2018-04-26T13:28:18.984Z,13.50
2018-04-26T13:30:46.501Z,13.50
2018-04-26T13:33:14.005Z,13.40
2018-04-26T13:35:41.814Z,13.80
2018-04-26T13:38:09.310Z,14.40
2018-04-26T13:40:36.812Z,14.50
2018-04-26T13:43:04.327Z,14.40
2018-04-26T13:45:31.852Z,14.40
2018-04-26T13:47:59.359Z,13.80
2018-04-26T13:50:26.860Z,13.40
2018-04-26T13:52:54.354Z,13.20
2018-04-26T13:55:22.234Z,11.60
2018-04-26T13:57:49.735Z,11.60
2018-04-26T14:00:17.235Z,11.00
2018-04-26T14:02:45.222Z,11.20
2018-04-26T14:05:12.713Z,11.10
2018-04-26T14:07:40.206Z,11.90
2018-04-26T14:10:08.105Z,12.30
2018-04-26T14:12:35.599Z,12.40
2018-04-26T14:15:03.140Z,12.40
2018-04-26T14:17:30.743Z,12.30
2018-04-26T14:19:58.219Z,12.70
2018-04-26T14:22:25.751Z,13.10
2018-04-26T14:24:53.653Z,14.60
2018-04-26T14:27:21.166Z,14.60
2018-04-26T14:29:48.720Z,15.30
2018-04-26T14:32:16.237Z,15.50
2018-04-26T14:34:43.784Z,15.90
2018-04-26T14:37:11.394Z,16.10
2018-04-26T14:39:38.808Z,15.80
2018-04-26T14:42:06.305Z,16.00
2018-04-26T14:44:33.807Z,16.50
2018-04-26T14:47:01.314Z,17.10
2018-04-26T14:49:28.806Z,16.70
2018-04-26T14:51:56.723Z,14.80
2018-04-26T14:54:24.217Z,14.80
2018-04-26T14:56:51.741Z,14.40
2018-04-26T14:59:19.267Z,14.00
2018-04-26T15:01:46.751Z,13.60
2018-04-26T15:04:14.281Z,13.50
2018-04-26T15:06:42.740Z,13.30
2018-04-26T15:09:10.239Z,13.20
2018-04-26T15:11:39.017Z,13.10
2018-04-26T15:14:07.817Z,13.20
2018-04-26T15:16:37.013Z,14.60
2018-04-26T15:19:04.668Z,14.60
2018-04-26T15:21:34.734Z,15.20
2018-04-26T15:24:02.270Z,15.50
2018-04-26T15:26:29.801Z,15.90
2018-04-26T15:28:57.302Z,16.10
2018-04-26T15:31:24.830Z,16.20
2018-04-26T15:33:52.355Z,16.40
2018-04-26T15:36:20.422Z,16.40
2018-04-26T15:38:48.720Z,16.50
2018-04-26T15:41:19.206Z,16.90
2018-04-26T15:43:46.720Z,17.20
2018-04-26T15:46:14.598Z,16.60
2018-04-26T15:48:42.209Z,16.50
2018-04-26T15:51:09.707Z,16.10
2018-04-26T15:53:49.040Z,15.50
2018-04-26T15:59:30.637Z,14.20
2018-04-26T16:02:25.397Z,13.80
2018-04-26T16:05:10.831Z,13.40
2018-04-26T16:07:55.929Z,13.40
2018-04-26T16:10:42.486Z,12.90
2018-04-26T16:13:28.544Z,12.90
2018-04-26T16:16:14.039Z,12.40
2018-04-26T16:18:59.198Z,12.40
2018-04-26T16:21:38.519Z,12.20
2018-04-26T16:24:33.787Z,11.80
2018-04-26T16:27:18.819Z,11.70
2018-04-26T16:29:58.241Z,11.80
2018-04-26T16:32:37.509Z,11.80
2018-04-26T16:35:20.753Z,11.80
2018-04-26T16:38:06.005Z,11.90
2018-04-26T16:40:33.594Z,12.00
2018-04-26T16:43:01.208Z,12.00
2018-04-26T16:45:28.780Z,12.10
2018-04-26T16:47:56.490Z,12.10
2018-04-26T16:50:24.122Z,11.90
2018-04-26T16:52:51.766Z,11.70
2018-04-26T16:55:19.373Z,11.60
2018-04-26T16:57:47.017Z,11.40
2018-04-26T17:00:15.238Z,11.30
2018-04-26T17:02:42.901Z,11.20
2018-04-26T17:05:10.556Z,11.10
2018-04-26T17:07:38.171Z,11.00
2018-04-26T17:10:06.123Z,11.00
2018-04-26T17:12:33.780Z,11.00
2018-04-26T17:15:03.252Z,11.00
2018-04-26T17:17:30.844Z,11.10
2018-04-26T17:19:58.363Z,11.00
2018-04-26T17:22:25.874Z,11.10
2018-04-26T17:24:53.349Z,11.00
2018-04-26T17:27:20.865Z,11.00
2018-04-26T17:29:48.368Z,11.00
2018-04-26T17:32:15.928Z,11.00
2018-04-26T17:34:43.455Z,11.00
2018-04-26T17:37:10.953Z,10.90
2018-04-26T17:39:38.468Z,11.00
2018-04-26T17:42:06.001Z,11.00
2018-04-26T17:44:33.545Z,11.00
2018-04-26T17:47:01.071Z,11.00
2018-04-26T17:49:28.568Z,11.00
2018-04-26T17:51:56.869Z,10.90
2018-04-26T17:54:24.356Z,10.90
2018-04-26T17:56:51.873Z,10.80
2018-04-26T17:59:19.401Z,10.80
2018-04-26T18:01:46.899Z,10.70
2018-04-26T18:04:14.416Z,10.60
2018-04-26T18:06:42.324Z,10.50
2018-04-26T18:09:09.841Z,10.50
2018-04-26T18:11:37.725Z,10.40
2018-04-26T18:14:05.241Z,10.40
2018-04-26T18:16:32.754Z,10.40
2018-04-26T18:19:02.276Z,10.30
2018-04-26T18:21:29.834Z,10.20
2018-04-26T18:23:57.348Z,10.20
2018-04-26T18:26:24.889Z,10.10
2018-04-26T18:28:52.798Z,10.00
2018-04-26T18:31:20.299Z,10.00
2018-04-26T18:33:48.788Z,10.00
2018-04-26T18:36:17.277Z,9.90
2018-04-26T18:38:45.733Z,9.90
2018-04-26T18:41:13.248Z,9.80
2018-04-26T18:43:40.907Z,9.80
2018-04-26T18:46:08.408Z,9.80
2018-04-26T18:48:35.923Z,9.70
2018-04-26T18:51:04.792Z,9.70
2018-04-26T18:53:34.350Z,9.60
2018-04-26T18:56:01.922Z,9.50
2018-04-26T18:58:29.440Z,9.50
2018-04-26T19:01:11.161Z,9.40
2018-04-26T19:03:38.687Z,9.40
2018-04-26T19:06:06.352Z,9.30
2018-04-26T19:08:33.878Z,9.20
2018-04-26T19:11:08.122Z,9.10
2018-04-26T19:13:36.594Z,9.10
2018-04-26T19:16:04.700Z,9.10
2018-04-26T19:18:32.184Z,9.10
2018-04-26T19:20:59.773Z,9.00
2018-04-26T19:23:27.201Z,9.00
2018-04-26T19:25:54.720Z,8.90
2018-04-26T19:28:22.812Z,8.90
2018-04-26T19:30:50.316Z,8.80
2018-04-26T19:33:40.302Z,8.70
2018-04-26T19:36:08.806Z,8.70
2018-04-26T19:38:36.487Z,8.70
2018-04-26T19:41:04.096Z,8.70
2018-04-26T19:43:31.888Z,8.60
2018-04-26T19:45:59.520Z,8.60
2018-04-26T19:48:27.113Z,8.50
2018-04-26T19:50:54.768Z,8.50
2018-04-26T19:53:22.330Z,8.50
2018-04-26T19:55:49.889Z,8.40
2018-04-26T19:58:17.733Z,8.40
2018-04-26T20:00:48.384Z,8.40
2018-04-26T20:03:16.240Z,8.40
2018-04-26T20:05:43.911Z,8.30
2018-04-26T20:08:21.186Z,8.30
2018-04-26T20:10:49.720Z,8.20
2018-04-26T20:13:20.960Z,8.10
2018-04-26T20:15:53.862Z,8.00
2018-04-26T20:18:38.195Z,7.90
2018-04-26T20:24:03.555Z,7.70
2018-04-26T20:26:39.551Z,7.70
2018-04-26T20:38:12.896Z,7.60
2018-04-26T20:40:40.890Z,7.70
2018-04-26T20:49:08.997Z,7.70
2018-04-26T21:06:34.127Z,7.70
2018-04-26T21:09:03.057Z,7.70
2018-04-26T21:11:30.686Z,7.70
2018-04-26T21:13:58.754Z,7.60
2018-04-26T21:16:26.307Z,7.70
2018-04-26T21:18:54.446Z,7.60
2018-04-26T21:21:21.980Z,7.60
2018-04-26T21:23:49.540Z,7.50
2018-04-26T21:26:17.085Z,7.50
2018-04-26T21:28:44.720Z,7.50
2018-04-26T21:31:13.221Z,7.50
2018-04-26T21:33:40.742Z,7.40
2018-04-26T21:36:08.461Z,7.40
2018-04-26T21:38:36.013Z,7.40
2018-04-26T21:41:03.574Z,7.30
2018-04-26T21:43:31.169Z,7.30
2018-04-26T21:45:58.744Z,7.20
2018-04-26T21:48:26.282Z,7.20
2018-04-26T21:50:59.700Z,7.20
2018-04-26T21:53:32.908Z,7.10
2018-04-26T21:56:06.582Z,7.10
2018-04-26T21:58:39.813Z,7.10
2018-04-26T22:01:13.091Z,7.00
2018-04-26T22:03:41.558Z,6.90
2018-04-26T22:06:09.519Z,6.80
2018-04-26T22:08:37.559Z,6.70
2018-04-26T22:11:05.180Z,6.70
2018-04-26T22:13:35.071Z,6.60
2018-04-26T22:16:02.813Z,6.60
2018-04-26T22:18:51.752Z,6.50
2018-04-26T22:21:29.292Z,6.50
2018-04-26T22:24:07.205Z,6.50
2018-04-26T22:26:42.224Z,6.50
2018-04-26T22:29:10.684Z,6.50
2018-04-26T22:31:40.224Z,6.30
2018-04-26T22:34:08.320Z,6.30
2018-04-26T22:36:36.122Z,6.30
2018-04-26T22:39:03.788Z,6.20
2018-04-26T22:41:31.896Z,6.20
2018-04-26T22:43:59.527Z,6.20
2018-04-26T22:46:27.597Z,6.10
2018-04-26T22:48:55.263Z,6.10
2018-04-26T22:51:22.928Z,6.00
2018-04-26T22:53:50.619Z,5.90
2018-04-26T22:56:18.271Z,5.90
2018-04-26T22:58:45.944Z,5.80
2018-04-26T23:01:14.650Z,5.80
2018-04-26T23:03:42.267Z,5.80
2018-04-26T23:06:10.371Z,5.60
2018-04-26T23:08:38.020Z,5.60
2018-04-26T23:11:05.632Z,5.60
2018-04-26T23:13:33.694Z,5.40
2018-04-26T23:16:01.751Z,5.40
2018-04-26T23:18:29.434Z,5.40
2018-04-26T23:20:59.488Z,5.30
2018-04-26T23:23:27.145Z,5.30
2018-04-26T23:25:54.755Z,5.20
2018-04-26T23:28:22.393Z,5.20
2018-04-26T23:30:50.023Z,5.10
2018-04-26T23:33:17.693Z,5.10
2018-04-26T23:35:45.342Z,5.00
2018-04-26T23:38:13.041Z,5.00
2018-04-26T23:40:40.654Z,4.90
2018-04-26T23:43:08.682Z,4.90
2018-04-26T23:45:36.288Z,4.90
2018-04-26T23:48:03.929Z,4.80
2018-04-26T23:50:31.567Z,4.80
2018-04-26T23:52:59.230Z,4.80
2018-04-26T23:55:26.890Z,4.70
2018-04-26T23:57:54.512Z,4.70
